Time,TemperatureF,DewpointF,PressureIn,WindDirection,WindDirectionDegrees,WindSpeedMPH,WindSpeedGustMPH,Humidity,HourlyPrecipIn,Conditions,Clouds,dailyrainin,SoftwareType,DateUTC
2013-02-20 00:00:00,16.7,14.5,30.03,West,267,14.0,16.0,91,0.00,,---,0.00,VWS V14.01,2013-02-20 05:00:00,
2013-02-20 00:05:00,16.8,14.6,30.03,West,269,13.0,13.0,91,0.00,,---,0.00,VWS V14.01,2013-02-20 05:05:00,
2013-02-20 00:10:00,16.8,14.6,30.03,West,271,13.0,18.0,91,0.00,,---,0.00,VWS V14.01,2013-02-20 05:10:00,
2013-02-20 00:15:00,16.7,14.5,30.04,West,273,11.0,15.0,91,0.00,,---,0.00,VWS V14.01,2013-02-20 05:15:00,
2013-02-20 00:20:00,16.7,14.5,30.04,WSW,252,13.0,17.0,91,0.00,,---,0.00,VWS V14.01,2013-02-20 05:20:00,
2013-02-20 00:25:00,16.7,14.5,30.04,West,279,11.0,13.0,91,0.00,,---,0.00,VWS V14.01,2013-02-20 05:25:00,
2013-02-20 00:31:00,16.6,14.4,30.04,West,262,10.0,16.0,91,0.00,,---,0.00,VWS V14.01,2013-02-20 05:31:00,
2013-02-20 00:36:00,16.6,14.4,30.04,West,263,11.0,14.0,91,0.00,,---,0.00,VWS V14.01,2013-02-20 05:36:00,
2013-02-20 00:41:00,16.6,14.4,30.04,WSW,252,9.0,13.0,91,0.00,,---,0.00,VWS V14.01,2013-02-20 05:41:00,
2013-02-20 00:46:00,16.6,14.4,30.04,West,260,12.0,14.0,91,0.00,,---,0.00,VWS V14.01,2013-02-20 05:46:00,
2013-02-20 00:51:00,16.6,14.4,30.04,West,274,14.0,14.0,91,0.00,,---,0.00,VWS V14.01,2013-02-20 05:51:00,
2013-02-20 00:56:00,16.6,14.4,30.04,WSW,252,9.0,13.0,91,0.00,,---,0.00,VWS V14.01,2013-02-20 05:56:00,
2013-02-20 01:01:00,16.6,14.4,30.05,West,262,12.0,16.0,91,0.00,,---,0.00,VWS V14.01,2013-02-20 06:01:00,
2013-02-20 01:06:00,16.6,14.4,30.05,West,275,11.0,11.0,91,0.00,,---,0.00,VWS V14.01,2013-02-20 06:06:00,
2013-02-20 01:11:00,16.6,14.4,30.05,West,271,9.0,14.0,91,0.00,,---,0.00,VWS V14.01,2013-02-20 06:11:00,
2013-02-20 01:16:00,16.6,14.4,30.05,West,272,10.0,12.0,91,0.00,,---,0.00,VWS V14.01,2013-02-20 06:16:00,
2013-02-20 01:21:00,16.6,14.7,30.05,WNW,282,9.0,12.0,92,0.00,,---,0.00,VWS V14.01,2013-02-20 06:21:00,
2013-02-20 01:26:00,16.6,14.7,30.05,West,274,10.0,12.0,92,0.00,,---,0.00,VWS V14.01,2013-02-20 06:26:00,
2013-02-20 01:31:00,16.7,14.8,30.05,West,275,8.0,11.0,92,0.00,,---,0.00,VWS V14.01,2013-02-20 06:31:00,
2013-02-20 01:36:00,16.7,14.8,30.06,West,277,9.0,11.0,92,0.00,,---,0.00,VWS V14.01,2013-02-20 06:36:00,
2013-02-20 01:41:00,16.8,14.9,30.06,West,269,9.0,14.0,92,0.00,,---,0.00,VWS V14.01,2013-02-20 06:41:00,
2013-02-20 01:46:00,16.8,14.9,30.07,WNW,293,8.0,11.0,92,0.00,,---,0.00,VWS V14.01,2013-02-20 06:46:00,
2013-02-20 01:51:00,16.8,14.9,30.07,West,275,8.0,11.0,92,0.00,,---,0.00,VWS V14.01,2013-02-20 06:51:00,
2013-02-20 01:56:00,16.8,14.9,30.07,WNW,298,12.0,13.0,92,0.00,,---,0.00,VWS V14.01,2013-02-20 06:56:00,
2013-02-20 02:01:00,16.8,14.9,30.07,WNW,301,10.0,14.0,92,0.00,,---,0.00,VWS V14.01,2013-02-20 07:01:00,
2013-02-20 02:06:00,16.8,14.6,30.07,WNW,289,7.0,11.0,91,0.00,,---,0.00,VWS V14.01,2013-02-20 07:06:00,
2013-02-20 02:11:00,16.8,14.9,30.08,WNW,283,8.0,12.0,92,0.00,,---,0.00,VWS V14.01,2013-02-20 07:11:00,
2013-02-20 02:16:00,16.7,14.5,30.08,WNW,286,9.0,11.0,91,0.00,,---,0.00,VWS V14.01,2013-02-20 07:16:00,
2013-02-20 02:21:00,16.7,14.5,30.08,WNW,287,11.0,13.0,91,0.00,,---,0.00,VWS V14.01,2013-02-20 07:21:00,
2013-02-20 02:26:00,16.7,14.5,30.08,West,281,6.0,10.0,91,0.00,,---,0.00,VWS V14.01,2013-02-20 07:26:00,
2013-02-20 02:31:00,16.7,14.5,30.08,West,276,8.0,10.0,91,0.00,,---,0.00,VWS V14.01,2013-02-20 07:31:00,
2013-02-20 02:36:00,16.6,14.7,30.08,West,273,7.0,10.0,92,0.00,,---,0.00,VWS V14.01,2013-02-20 07:36:00,
2013-02-20 02:41:00,16.5,14.3,30.08,WNW,283,10.0,11.0,91,0.00,,---,0.00,VWS V14.01,2013-02-20 07:41:00,
2013-02-20 02:46:00,16.4,14.5,30.09,WNW,300,12.0,12.0,92,0.00,,---,0.00,VWS V14.01,2013-02-20 07:46:00,
2013-02-20 02:51:00,16.3,14.4,30.09,WNW,282,6.0,10.0,92,0.00,,---,0.00,VWS V14.01,2013-02-20 07:51:00,
2013-02-20 02:56:00,16.4,14.5,30.09,WNW,283,9.0,11.0,92,0.00,,---,0.00,VWS V14.01,2013-02-20 07:56:00,
2013-02-20 03:05:00,16.4,14.5,30.09,WNW,284,11.0,11.0,92,0.00,,---,0.00,VWS V14.01,2013-02-20 08:05:00,
2013-02-20 03:10:00,16.4,14.5,30.09,WNW,292,7.0,9.0,92,0.00,,---,0.00,VWS V14.01,2013-02-20 08:10:00,
2013-02-20 03:15:00,16.4,14.5,30.09,WNW,285,9.0,10.0,92,0.00,,---,0.00,VWS V14.01,2013-02-20 08:15:00,
2013-02-20 03:20:00,16.4,14.5,30.09,WNW,297,8.0,9.0,92,0.00,,---,0.00,VWS V14.01,2013-02-20 08:20:00,
2013-02-20 03:25:00,16.4,14.5,30.09,West,281,8.0,12.0,92,0.00,,---,0.00,VWS V14.01,2013-02-20 08:25:00,
2013-02-20 03:30:00,16.3,14.4,30.10,WNW,291,7.0,10.0,92,0.00,,---,0.00,VWS V14.01,2013-02-20 08:30:00,
2013-02-20 03:35:00,16.3,14.4,30.10,NW,305,9.0,13.0,92,0.00,,---,0.00,VWS V14.01,2013-02-20 08:35:00,
2013-02-20 03:40:00,16.3,14.4,30.10,WNW,283,10.0,13.0,92,0.00,,---,0.00,VWS V14.01,2013-02-20 08:40:00,
2013-02-20 03:45:00,16.3,14.4,30.10,WNW,299,9.0,12.0,92,0.00,,---,0.00,VWS V14.01,2013-02-20 08:45:00,
2013-02-20 03:50:00,16.2,14.3,30.10,WNW,296,7.0,9.0,92,0.00,,---,0.00,VWS V14.01,2013-02-20 08:50:00,
2013-02-20 03:55:00,16.2,14.3,30.10,West,280,6.0,8.0,92,0.00,,---,0.00,VWS V14.01,2013-02-20 08:55:00,
2013-02-20 04:00:00,16.2,14.3,30.11,WNW,292,7.0,8.0,92,0.00,,---,0.00,VWS V14.01,2013-02-20 09:00:00,
2013-02-20 04:05:00,16.2,14.3,30.11,West,280,9.0,10.0,92,0.00,,---,0.00,VWS V14.01,2013-02-20 09:05:00,
2013-02-20 04:10:00,16.2,14.3,30.11,West,278,8.0,9.0,92,0.00,,---,0.00,VWS V14.01,2013-02-20 09:10:00,
2013-02-20 04:15:00,16.2,14.3,30.12,West,271,11.0,11.0,92,0.00,,---,0.00,VWS V14.01,2013-02-20 09:15:00,
2013-02-20 04:20:00,16.2,14.3,30.12,West,275,8.0,10.0,92,0.00,,---,0.00,VWS V14.01,2013-02-20 09:20:00,
2013-02-20 04:25:00,16.2,14.3,30.12,West,280,10.0,12.0,92,0.00,,---,0.00,VWS V14.01,2013-02-20 09:25:00,
2013-02-20 04:30:00,16.2,14.3,30.12,West,277,8.0,11.0,92,0.00,,---,0.00,VWS V14.01,2013-02-20 09:30:00,
2013-02-20 04:35:00,16.2,14.3,30.12,West,276,10.0,12.0,92,0.00,,---,0.00,VWS V14.01,2013-02-20 09:35:00,
2013-02-20 04:40:00,16.2,14.3,30.12,West,275,10.0,10.0,92,0.00,,---,0.00,VWS V14.01,2013-02-20 09:40:00,
2013-02-20 04:45:00,16.3,14.4,30.12,West,274,11.0,13.0,92,0.00,,---,0.00,VWS V14.01,2013-02-20 09:45:00,
2013-02-20 04:50:00,16.3,14.1,30.12,West,271,11.0,12.0,91,0.00,,---,0.00,VWS V14.01,2013-02-20 09:50:00,
2013-02-20 04:55:00,16.4,14.2,30.13,WNW,288,11.0,13.0,91,0.00,,---,0.00,VWS V14.01,2013-02-20 09:55:00,
2013-02-20 05:00:00,16.5,14.3,30.13,West,267,10.0,11.0,91,0.00,,---,0.00,VWS V14.01,2013-02-20 10:00:00,
2013-02-20 05:05:00,16.6,14.4,30.12,West,275,8.0,10.0,91,0.00,,---,0.00,VWS V14.01,2013-02-20 10:05:00,
2013-02-20 05:10:00,16.7,14.5,30.12,West,277,10.0,11.0,91,0.00,,---,0.00,VWS V14.01,2013-02-20 10:10:00,
2013-02-20 05:15:00,16.8,14.6,30.13,WNW,285,8.0,10.0,91,0.00,,---,0.00,VWS V14.01,2013-02-20 10:15:00,
2013-02-20 05:20:00,16.8,14.9,30.13,WNW,286,9.0,12.0,92,0.00,,---,0.00,VWS V14.01,2013-02-20 10:20:00,
2013-02-20 05:25:00,16.9,15.0,30.13,WNW,290,12.0,12.0,92,0.00,,---,0.00,VWS V14.01,2013-02-20 10:25:00,
2013-02-20 05:31:00,16.9,15.0,30.14,WNW,298,7.0,10.0,92,0.00,,---,0.00,VWS V14.01,2013-02-20 10:31:00,
2013-02-20 05:36:00,16.9,15.0,30.14,WNW,297,8.0,10.0,92,0.00,,---,0.00,VWS V14.01,2013-02-20 10:36:00,
2013-02-20 05:41:00,16.9,15.0,30.14,WNW,284,9.0,10.0,92,0.00,,---,0.00,VWS V14.01,2013-02-20 10:41:00,
2013-02-20 05:46:00,16.9,15.0,30.15,WNW,290,9.0,11.0,92,0.00,,---,0.00,VWS V14.01,2013-02-20 10:46:00,
2013-02-20 05:51:00,16.9,15.0,30.14,WNW,298,10.0,10.0,92,0.00,,---,0.00,VWS V14.01,2013-02-20 10:51:00,
2013-02-20 05:56:00,16.9,15.0,30.14,West,281,9.0,13.0,92,0.00,,---,0.00,VWS V14.01,2013-02-20 10:56:00,
2013-02-20 06:01:00,16.9,15.0,30.15,NW,304,8.0,10.0,92,0.00,,---,0.00,VWS V14.01,2013-02-20 11:01:00,
2013-02-20 06:06:00,16.9,15.0,30.15,WNW,292,8.0,12.0,92,0.00,,---,0.00,VWS V14.01,2013-02-20 11:06:00,
2013-02-20 06:11:00,16.9,15.0,30.15,NW,305,8.0,12.0,92,0.00,,---,0.00,VWS V14.01,2013-02-20 11:11:00,
2013-02-20 06:16:00,16.9,15.0,30.15,NW,314,8.0,10.0,92,0.00,,---,0.00,VWS V14.01,2013-02-20 11:16:00,
2013-02-20 06:20:00,16.9,14.7,30.16,WNW,294,5.0,9.0,91,0.00,,---,0.00,VWS V14.01,2013-02-20 11:20:00,
2013-02-20 06:25:00,16.8,14.6,30.15,NW,317,8.0,10.0,91,0.00,,---,0.00,VWS V14.01,2013-02-20 11:25:00,
2013-02-20 06:30:00,16.8,14.6,30.16,NW,306,10.0,11.0,91,0.00,,---,0.00,VWS V14.01,2013-02-20 11:30:00,
2013-02-20 06:35:00,16.8,14.6,30.16,NW,311,9.0,11.0,91,0.00,,---,0.00,VWS V14.01,2013-02-20 11:35:00,
2013-02-20 06:40:00,16.7,14.5,30.16,WNW,285,8.0,10.0,91,0.00,,---,0.00,VWS V14.01,2013-02-20 11:40:00,
2013-02-20 06:45:00,16.7,14.5,30.17,WNW,302,9.0,11.0,91,0.00,,---,0.00,VWS V14.01,2013-02-20 11:45:00,
2013-02-20 06:50:00,16.6,14.4,30.16,WNW,296,5.0,6.0,91,0.00,,---,0.00,VWS V14.01,2013-02-20 11:50:00,
2013-02-20 06:55:00,16.6,14.4,30.17,NW,323,8.0,9.0,91,0.00,,---,0.00,VWS V14.01,2013-02-20 11:55:00,
2013-02-20 07:00:00,16.5,14.3,30.17,NW,326,8.0,11.0,91,0.00,,---,0.00,VWS V14.01,2013-02-20 12:00:00,
2013-02-20 07:05:00,16.5,14.3,30.17,NW,307,9.0,13.0,91,0.00,,---,0.00,VWS V14.01,2013-02-20 12:05:00,
2013-02-20 07:10:00,16.5,14.3,30.16,NW,321,8.0,8.0,91,0.00,,---,0.00,VWS V14.01,2013-02-20 12:10:00,
2013-02-20 07:15:00,16.5,14.3,30.16,NW,322,11.0,12.0,91,0.00,,---,0.00,VWS V14.01,2013-02-20 12:15:00,
2013-02-20 07:20:00,16.5,14.3,30.17,NW,307,8.0,11.0,91,0.00,,---,0.00,VWS V14.01,2013-02-20 12:20:00,
2013-02-20 07:25:00,16.6,14.4,30.17,NW,311,9.0,11.0,91,0.00,,---,0.00,VWS V14.01,2013-02-20 12:25:00,
2013-02-20 07:30:00,16.5,14.3,30.18,WNW,296,9.0,13.0,91,0.00,,---,0.00,VWS V14.01,2013-02-20 12:30:00,
2013-02-20 07:36:00,16.5,14.3,30.17,WNW,298,5.0,10.0,91,0.00,,---,0.00,VWS V14.01,2013-02-20 12:36:00,
2013-02-20 07:41:00,16.5,14.3,30.18,WNW,295,8.0,13.0,91,0.00,,---,0.00,VWS V14.01,2013-02-20 12:41:00,
2013-02-20 07:46:00,16.5,14.3,30.18,WNW,290,13.0,13.0,91,0.00,,---,0.00,VWS V14.01,2013-02-20 12:46:00,
2013-02-20 07:51:00,16.5,14.3,30.18,NW,305,9.0,11.0,91,0.00,,---,0.00,VWS V14.01,2013-02-20 12:51:00,
2013-02-20 07:56:00,16.6,14.2,30.19,WNW,296,8.0,11.0,90,0.00,,---,0.00,VWS V14.01,2013-02-20 12:56:00,
2013-02-20 08:01:00,16.6,14.2,30.19,NW,306,7.0,12.0,90,0.00,,---,0.00,VWS V14.01,2013-02-20 13:01:00,
2013-02-20 08:06:00,16.6,14.2,30.19,NW,307,8.0,13.0,90,0.00,,---,0.00,VWS V14.01,2013-02-20 13:06:00,
2013-02-20 08:11:00,16.7,14.3,30.19,NW,315,9.0,14.0,90,0.00,,---,0.00,VWS V14.01,2013-02-20 13:11:00,
2013-02-20 08:16:00,16.7,14.3,30.19,WNW,288,9.0,13.0,90,0.00,,---,0.00,VWS V14.01,2013-02-20 13:16:00,
2013-02-20 08:21:00,16.8,14.4,30.20,NW,304,10.0,13.0,90,0.00,,---,0.00,VWS V14.01,2013-02-20 13:21:00,
2013-02-20 08:26:00,16.8,14.1,30.20,WNW,290,11.0,12.0,89,0.00,,---,0.00,VWS V14.01,2013-02-20 13:26:00,
2013-02-20 08:31:00,16.8,14.1,30.20,WNW,290,9.0,11.0,89,0.00,,---,0.00,VWS V14.01,2013-02-20 13:31:00,
2013-02-20 08:36:00,16.9,14.2,30.20,WNW,291,8.0,14.0,89,0.00,,---,0.00,VWS V14.01,2013-02-20 13:36:00,
2013-02-20 08:41:00,16.9,14.2,30.20,NW,311,7.0,12.0,89,0.00,,---,0.00,VWS V14.01,2013-02-20 13:41:00,
2013-02-20 08:46:00,17.0,14.3,30.20,WNW,291,8.0,10.0,89,0.00,,---,0.00,VWS V14.01,2013-02-20 13:46:00,
2013-02-20 08:51:00,17.0,14.3,30.20,WNW,299,7.0,10.0,89,0.00,,---,0.00,VWS V14.01,2013-02-20 13:51:00,
2013-02-20 08:56:00,17.1,14.4,30.20,NW,311,12.0,18.0,89,0.00,,---,0.00,VWS V14.01,2013-02-20 13:56:00,
2013-02-20 09:01:00,17.1,14.2,30.20,NNW,329,11.0,12.0,88,0.00,,---,0.00,VWS V14.01,2013-02-20 14:01:00,
2013-02-20 09:06:00,17.2,14.3,30.20,NW,313,9.0,12.0,88,0.00,,---,0.00,VWS V14.01,2013-02-20 14:06:00,
2013-02-20 09:11:00,17.3,14.4,30.21,NW,318,9.0,15.0,88,0.00,,---,0.00,VWS V14.01,2013-02-20 14:11:00,
2013-02-20 09:16:00,17.3,14.4,30.21,WNW,303,9.0,14.0,88,0.00,,---,0.00,VWS V14.01,2013-02-20 14:16:00,
2013-02-20 09:21:00,17.4,14.5,30.21,NW,319,8.0,12.0,88,0.00,,---,0.00,VWS V14.01,2013-02-20 14:21:00,
2013-02-20 09:26:00,17.4,14.5,30.21,WNW,296,14.0,14.0,88,0.00,,---,0.00,VWS V14.01,2013-02-20 14:26:00,
2013-02-20 09:31:00,17.5,14.3,30.21,NW,317,10.0,13.0,87,0.00,,---,0.00,VWS V14.01,2013-02-20 14:31:00,
2013-02-20 09:36:00,17.6,14.4,30.21,NW,311,11.0,11.0,87,0.00,,---,0.00,VWS V14.01,2013-02-20 14:36:00,
2013-02-20 09:41:00,17.6,14.4,30.21,NW,316,11.0,13.0,87,0.00,,---,0.00,VWS V14.01,2013-02-20 14:41:00,
2013-02-20 09:46:00,17.7,14.5,30.22,NW,313,11.0,14.0,87,0.00,,---,0.00,VWS V14.01,2013-02-20 14:46:00,
2013-02-20 09:51:00,17.8,14.6,30.22,NW,314,15.0,15.0,87,0.00,,---,0.00,VWS V14.01,2013-02-20 14:51:00,
2013-02-20 09:56:00,17.9,14.4,30.22,WNW,298,8.0,11.0,86,0.00,,---,0.00,VWS V14.01,2013-02-20 14:56:00,
2013-02-20 10:01:00,18.0,14.5,30.22,NW,323,9.0,11.0,86,0.00,,---,0.00,VWS V14.01,2013-02-20 15:01:00,
2013-02-20 10:06:00,18.1,14.6,30.22,WNW,299,10.0,12.0,86,0.00,,---,0.00,VWS V14.01,2013-02-20 15:06:00,
2013-02-20 10:11:00,18.1,14.4,30.22,NW,315,10.0,19.0,85,0.00,,---,0.00,VWS V14.01,2013-02-20 15:11:00,
2013-02-20 10:16:00,18.3,14.6,30.22,NNW,338,18.0,18.0,85,0.00,,---,0.00,VWS V14.01,2013-02-20 15:16:00,
2013-02-20 10:21:00,18.4,14.6,30.22,NNW,338,16.0,16.0,85,0.00,,---,0.00,VWS V14.01,2013-02-20 15:21:00,
2013-02-20 10:26:00,18.5,14.8,30.22,NNW,331,9.0,16.0,85,0.00,,---,0.00,VWS V14.01,2013-02-20 15:26:00,
2013-02-20 10:31:00,18.5,14.5,30.22,NW,319,11.0,11.0,84,0.00,,---,0.00,VWS V14.01,2013-02-20 15:31:00,
2013-02-20 10:36:00,18.7,14.4,30.23,NNW,331,13.0,19.0,83,0.00,,---,0.00,VWS V14.01,2013-02-20 15:36:00,
2013-02-20 10:41:00,18.8,14.5,30.23,NW,308,14.0,17.0,83,0.00,,---,0.00,VWS V14.01,2013-02-20 15:41:00,
2013-02-20 10:46:00,18.9,14.6,30.23,NNW,337,11.0,14.0,83,0.00,,---,0.00,VWS V14.01,2013-02-20 15:46:00,
2013-02-20 10:51:00,19.0,14.4,30.24,NW,317,11.0,13.0,82,0.00,,---,0.00,VWS V14.01,2013-02-20 15:51:00,
2013-02-20 10:56:00,19.1,14.2,30.23,NW,320,12.0,13.0,81,0.00,,---,0.00,VWS V14.01,2013-02-20 15:56:00,
2013-02-20 11:01:00,19.1,14.2,30.23,WNW,295,13.0,15.0,81,0.00,,---,0.00,VWS V14.01,2013-02-20 16:01:00,
2013-02-20 11:06:00,19.3,14.4,30.23,NW,309,12.0,14.0,81,0.00,,---,0.00,VWS V14.01,2013-02-20 16:06:00,
2013-02-20 11:11:00,19.4,14.0,30.23,NW,311,13.0,21.0,79,0.00,,---,0.00,VWS V14.01,2013-02-20 16:11:00,
2013-02-20 11:16:00,19.5,14.1,30.23,NNW,340,9.0,16.0,79,0.00,,---,0.00,VWS V14.01,2013-02-20 16:16:00,
2013-02-20 11:21:00,19.4,14.0,30.24,NW,318,14.0,17.0,79,0.00,,---,0.00,VWS V14.01,2013-02-20 16:21:00,
2013-02-20 11:26:00,19.3,14.4,30.24,NW,321,15.0,15.0,81,0.00,,---,0.00,VWS V14.01,2013-02-20 16:26:00,
2013-02-20 11:31:00,19.3,14.1,30.24,WNW,298,12.0,21.0,80,0.00,,---,0.00,VWS V14.01,2013-02-20 16:31:00,
2013-02-20 11:36:00,19.3,13.9,30.24,WNW,301,11.0,16.0,79,0.00,,---,0.00,VWS V14.01,2013-02-20 16:36:00,
2013-02-20 11:41:00,19.5,14.1,30.24,NW,305,15.0,16.0,79,0.00,,---,0.00,VWS V14.01,2013-02-20 16:41:00,
2013-02-20 11:46:00,19.5,13.8,30.24,NW,306,12.0,17.0,78,0.00,,---,0.00,VWS V14.01,2013-02-20 16:46:00,
2013-02-20 11:51:00,19.5,13.8,30.24,NW,319,12.0,20.0,78,0.00,,---,0.00,VWS V14.01,2013-02-20 16:51:00,
2013-02-20 11:56:00,19.5,13.8,30.24,NW,321,11.0,15.0,78,0.00,,---,0.00,VWS V14.01,2013-02-20 16:56:00,
2013-02-20 12:01:00,19.6,13.9,30.24,NW,309,9.0,17.0,78,0.00,,---,0.00,VWS V14.01,2013-02-20 17:01:00,
2013-02-20 12:06:00,19.8,14.1,30.24,NW,307,12.0,12.0,78,0.00,,---,0.00,VWS V14.01,2013-02-20 17:06:00,
2013-02-20 12:11:00,19.9,13.9,30.24,WNW,302,13.0,14.0,77,0.00,,---,0.00,VWS V14.01,2013-02-20 17:11:00,
2013-02-20 12:16:00,20.0,14.3,30.25,NW,322,14.0,16.0,78,0.00,,---,0.00,VWS V14.01,2013-02-20 17:16:00,
2013-02-20 12:21:00,20.0,14.3,30.25,NW,309,11.0,13.0,78,0.00,,---,0.00,VWS V14.01,2013-02-20 17:21:00,
2013-02-20 12:26:00,20.1,14.4,30.25,NW,306,8.0,13.0,78,0.00,,---,0.00,VWS V14.01,2013-02-20 17:26:00,
2013-02-20 12:31:00,20.3,14.8,30.25,NW,315,9.0,13.0,79,0.00,,---,0.00,VWS V14.01,2013-02-20 17:31:00,
2013-02-20 12:36:00,20.3,14.8,30.25,NW,321,8.0,14.0,79,0.00,,---,0.00,VWS V14.01,2013-02-20 17:36:00,
2013-02-20 12:41:00,20.4,14.9,30.25,WNW,299,12.0,14.0,79,0.00,,---,0.00,VWS V14.01,2013-02-20 17:41:00,
2013-02-20 12:46:00,20.3,14.3,30.25,WNW,302,15.0,17.0,77,0.00,,---,0.00,VWS V14.01,2013-02-20 17:46:00,
2013-02-20 12:51:00,20.2,14.2,30.25,NW,319,8.0,14.0,77,0.00,,---,0.00,VWS V14.01,2013-02-20 17:51:00,
2013-02-20 12:56:00,20.2,13.9,30.25,NW,313,10.0,14.0,76,0.00,,---,0.00,VWS V14.01,2013-02-20 17:56:00,
2013-02-20 13:01:00,20.3,14.3,30.25,NW,319,12.0,13.0,77,0.00,,---,0.00,VWS V14.01,2013-02-20 18:01:00,
2013-02-20 13:06:00,20.5,14.4,30.25,WNW,290,12.0,17.0,77,0.00,,---,0.00,VWS V14.01,2013-02-20 18:06:00,
2013-02-20 13:11:00,20.6,14.2,30.24,NW,305,11.0,15.0,76,0.00,,---,0.00,VWS V14.01,2013-02-20 18:11:00,
2013-02-20 13:16:00,20.5,14.4,30.25,NW,310,12.0,15.0,77,0.00,,---,0.00,VWS V14.01,2013-02-20 18:16:00,
2013-02-20 13:21:00,20.5,14.4,30.25,NW,311,8.0,12.0,77,0.00,,---,0.00,VWS V14.01,2013-02-20 18:21:00,
2013-02-20 13:26:00,20.6,14.2,30.25,NW,309,13.0,15.0,76,0.00,,---,0.00,VWS V14.01,2013-02-20 18:26:00,
2013-02-20 13:31:00,20.7,14.4,30.25,WNW,302,8.0,16.0,76,0.00,,---,0.00,VWS V14.01,2013-02-20 18:31:00,
2013-02-20 13:36:00,20.8,14.4,30.25,NW,309,13.0,16.0,76,0.00,,---,0.00,VWS V14.01,2013-02-20 18:36:00,
2013-02-20 13:41:00,20.8,14.4,30.25,NW,325,11.0,19.0,76,0.00,,---,0.00,VWS V14.01,2013-02-20 18:41:00,
2013-02-20 13:46:00,20.9,14.5,30.25,WNW,303,11.0,16.0,76,0.00,,---,0.00,VWS V14.01,2013-02-20 18:46:00,
2013-02-20 13:51:00,20.9,14.2,30.25,NW,325,11.0,14.0,75,0.00,,---,0.00,VWS V14.01,2013-02-20 18:51:00,
2013-02-20 13:56:00,21.1,14.4,30.25,WNW,290,10.0,13.0,75,0.00,,---,0.00,VWS V14.01,2013-02-20 18:56:00,
2013-02-20 14:01:00,21.1,14.7,30.25,NW,304,13.0,16.0,76,0.00,,---,0.00,VWS V14.01,2013-02-20 19:01:00,
2013-02-20 14:06:00,21.2,14.5,30.25,WNW,288,12.0,13.0,75,0.00,,---,0.00,VWS V14.01,2013-02-20 19:06:00,
2013-02-20 14:11:00,21.3,14.6,30.25,NW,304,15.0,15.0,75,0.00,,---,0.00,VWS V14.01,2013-02-20 19:11:00,
2013-02-20 14:16:00,21.3,14.6,30.25,NW,313,11.0,15.0,75,0.00,,---,0.00,VWS V14.01,2013-02-20 19:16:00,
2013-02-20 14:21:00,21.3,14.3,30.25,NW,317,13.0,16.0,74,0.00,,---,0.00,VWS V14.01,2013-02-20 19:21:00,
2013-02-20 14:26:00,21.3,14.3,30.24,WNW,298,10.0,14.0,74,0.00,,---,0.00,VWS V14.01,2013-02-20 19:26:00,
2013-02-20 14:31:00,21.5,14.8,30.25,WNW,295,11.0,16.0,75,0.00,,---,0.00,VWS V14.01,2013-02-20 19:31:00,
2013-02-20 14:36:00,21.5,15.1,30.25,NW,307,8.0,15.0,76,0.00,,---,0.00,VWS V14.01,2013-02-20 19:36:00,
2013-02-20 14:41:00,21.5,15.1,30.25,WNW,295,14.0,17.0,76,0.00,,---,0.00,VWS V14.01,2013-02-20 19:41:00,
2013-02-20 14:46:00,21.4,15.3,30.25,NW,308,8.0,13.0,77,0.00,,---,0.00,VWS V14.01,2013-02-20 19:46:00,
2013-02-20 14:51:00,21.4,15.3,30.25,NW,304,11.0,15.0,77,0.00,,---,0.00,VWS V14.01,2013-02-20 19:51:00,
2013-02-20 14:56:00,21.3,15.5,30.26,NW,311,9.0,14.0,78,0.00,,---,0.00,VWS V14.01,2013-02-20 19:56:00,
2013-02-20 15:01:00,21.4,15.6,30.26,WNW,294,12.0,13.0,78,0.00,,---,0.00,VWS V14.01,2013-02-20 20:01:00,
2013-02-20 15:06:00,21.4,15.3,30.26,WNW,302,8.0,15.0,77,0.00,,---,0.00,VWS V14.01,2013-02-20 20:06:00,
2013-02-20 15:11:00,21.4,15.6,30.27,West,277,11.0,16.0,78,0.00,,---,0.00,VWS V14.01,2013-02-20 20:11:00,
2013-02-20 15:16:00,21.4,15.6,30.27,WNW,300,9.0,14.0,78,0.00,,---,0.00,VWS V14.01,2013-02-20 20:16:00,
2013-02-20 15:21:00,21.5,15.4,30.28,WNW,296,13.0,16.0,77,0.00,,---,0.00,VWS V14.01,2013-02-20 20:21:00,
2013-02-20 15:26:00,21.5,15.4,30.28,WNW,294,14.0,14.0,77,0.00,,---,0.00,VWS V14.01,2013-02-20 20:26:00,
2013-02-20 15:31:00,21.6,15.8,30.28,WNW,288,13.0,15.0,78,0.00,,---,0.00,VWS V14.01,2013-02-20 20:31:00,
2013-02-20 15:36:00,21.6,15.8,30.29,WNW,291,14.0,18.0,78,0.00,,---,0.00,VWS V14.01,2013-02-20 20:36:00,
2013-02-20 15:41:00,21.6,15.8,30.29,WNW,290,13.0,17.0,78,0.00,,---,0.00,VWS V14.01,2013-02-20 20:41:00,
2013-02-20 15:46:00,21.6,15.8,30.29,WNW,290,13.0,17.0,78,0.00,,---,0.00,VWS V14.01,2013-02-20 20:46:00,
2013-02-20 15:51:00,21.8,15.7,30.30,WNW,283,10.0,16.0,77,0.00,,---,0.00,VWS V14.01,2013-02-20 20:51:00,
2013-02-20 15:56:00,22.0,15.9,30.30,WNW,288,15.0,18.0,77,0.00,,---,0.00,VWS V14.01,2013-02-20 20:56:00,
2013-02-20 16:01:00,22.0,15.9,30.30,WNW,290,11.0,15.0,77,0.00,,---,0.00,VWS V14.01,2013-02-20 21:01:00,
2013-02-20 16:06:00,22.1,16.0,30.30,WNW,282,13.0,15.0,77,0.00,,---,0.00,VWS V14.01,2013-02-20 21:06:00,
2013-02-20 16:11:00,22.1,16.6,30.30,West,262,15.0,15.0,79,0.00,,---,0.00,VWS V14.01,2013-02-20 21:11:00,
2013-02-20 16:16:00,22.1,16.9,30.31,West,274,13.0,16.0,80,0.00,,---,0.00,VWS V14.01,2013-02-20 21:16:00,
2013-02-20 16:21:00,22.1,16.9,30.31,WNW,286,11.0,15.0,80,0.00,,---,0.00,VWS V14.01,2013-02-20 21:21:00,
2013-02-20 16:26:00,22.1,16.9,30.31,West,280,15.0,15.0,80,0.00,,---,0.00,VWS V14.01,2013-02-20 21:26:00,
2013-02-20 16:31:00,22.0,16.8,30.31,West,273,13.0,18.0,80,0.00,,---,0.00,VWS V14.01,2013-02-20 21:31:00,
2013-02-20 16:36:00,22.1,16.9,30.31,West,280,15.0,15.0,80,0.00,,---,0.00,VWS V14.01,2013-02-20 21:36:00,
2013-02-20 16:41:00,22.1,16.9,30.31,WNW,285,12.0,13.0,80,0.00,,---,0.00,VWS V14.01,2013-02-20 21:41:00,
2013-02-20 16:46:00,22.2,16.4,30.31,WNW,286,19.0,21.0,78,0.00,,---,0.00,VWS V14.01,2013-02-20 21:46:00,
2013-02-20 16:51:00,22.2,16.4,30.31,WNW,287,11.0,18.0,78,0.00,,---,0.00,VWS V14.01,2013-02-20 21:51:00,
2013-02-20 16:56:00,22.2,16.4,30.31,WNW,282,10.0,15.0,78,0.00,,---,0.00,VWS V14.01,2013-02-20 21:56:00,
2013-02-20 17:01:00,22.2,16.4,30.31,WNW,295,14.0,18.0,78,0.00,,---,0.00,VWS V14.01,2013-02-20 22:01:00,
2013-02-20 17:06:00,22.2,16.4,30.31,NW,304,11.0,14.0,78,0.00,,---,0.00,VWS V14.01,2013-02-20 22:06:00,
2013-02-20 17:11:00,22.2,16.4,30.31,WNW,286,17.0,18.0,78,0.00,,---,0.00,VWS V14.01,2013-02-20 22:11:00,
2013-02-20 17:16:00,22.2,16.1,30.31,WNW,294,14.0,17.0,77,0.00,,---,0.00,VWS V14.01,2013-02-20 22:16:00,
2013-02-20 17:21:00,22.2,16.4,30.31,NW,319,12.0,16.0,78,0.00,,---,0.00,VWS V14.01,2013-02-20 22:21:00,
2013-02-20 17:26:00,22.1,16.3,30.30,NW,323,12.0,19.0,78,0.00,,---,0.00,VWS V14.01,2013-02-20 22:26:00,
2013-02-20 17:31:00,22.1,16.3,30.30,NW,320,14.0,16.0,78,0.00,,---,0.00,VWS V14.01,2013-02-20 22:31:00,
2013-02-20 17:36:00,22.1,16.3,30.30,NW,309,12.0,15.0,78,0.00,,---,0.00,VWS V14.01,2013-02-20 22:36:00,
2013-02-20 17:41:00,22.1,16.6,30.30,NW,320,12.0,14.0,79,0.00,,---,0.00,VWS V14.01,2013-02-20 22:41:00,
2013-02-20 17:46:00,22.1,16.6,30.30,NW,309,13.0,17.0,79,0.00,,---,0.00,VWS V14.01,2013-02-20 22:46:00,
2013-02-20 17:51:00,22.1,16.6,30.30,WNW,296,8.0,14.0,79,0.00,,---,0.00,VWS V14.01,2013-02-20 22:51:00,
2013-02-20 17:56:00,22.0,16.5,30.31,NW,306,14.0,16.0,79,0.00,,---,0.00,VWS V14.01,2013-02-20 22:56:00,
2013-02-20 18:01:00,22.0,16.8,30.30,NW,313,10.0,15.0,80,0.00,,---,0.00,VWS V14.01,2013-02-20 23:01:00,
2013-02-20 18:06:00,22.0,16.8,30.31,NW,325,11.0,13.0,80,0.00,,---,0.00,VWS V14.01,2013-02-20 23:06:00,
2013-02-20 18:11:00,22.0,16.8,30.31,WNW,298,12.0,16.0,80,0.00,,---,0.00,VWS V14.01,2013-02-20 23:11:00,
2013-02-20 18:16:00,22.1,16.6,30.31,NW,309,17.0,19.0,79,0.00,,---,0.00,VWS V14.01,2013-02-20 23:16:00,
2013-02-20 18:21:00,22.1,16.6,30.31,WNW,300,12.0,21.0,79,0.00,,---,0.00,VWS V14.01,2013-02-20 23:21:00,
2013-02-20 18:26:00,22.1,16.3,30.31,NW,304,12.0,14.0,78,0.00,,---,0.00,VWS V14.01,2013-02-20 23:26:00,
2013-02-20 18:31:00,22.2,16.4,30.31,NW,307,13.0,22.0,78,0.00,,---,0.00,VWS V14.01,2013-02-20 23:31:00,
2013-02-20 18:36:00,22.2,16.4,30.31,WNW,303,10.0,17.0,78,0.00,,---,0.00,VWS V14.01,2013-02-20 23:36:00,
2013-02-20 18:41:00,22.2,16.4,30.31,NW,311,12.0,19.0,78,0.00,,---,0.00,VWS V14.01,2013-02-20 23:41:00,
2013-02-20 18:46:00,22.1,16.3,30.31,WNW,299,13.0,17.0,78,0.00,,---,0.00,VWS V14.01,2013-02-20 23:46:00,
2013-02-20 18:51:00,22.1,16.3,30.32,WNW,296,8.0,15.0,78,0.00,,---,0.00,VWS V14.01,2013-02-20 23:51:00,
2013-02-20 18:56:00,22.1,16.3,30.31,NW,304,10.0,14.0,78,0.00,,---,0.00,VWS V14.01,2013-02-20 23:56:00,
2013-02-20 19:01:00,22.0,16.5,30.32,NW,311,12.0,15.0,79,0.00,,---,0.00,VWS V14.01,2013-02-21 00:01:00,
2013-02-20 19:06:00,22.0,16.8,30.32,NW,304,9.0,14.0,80,0.00,,---,0.00,VWS V14.01,2013-02-21 00:06:00,
2013-02-20 19:11:00,22.0,16.8,30.32,NW,304,11.0,17.0,80,0.00,,---,0.00,VWS V14.01,2013-02-21 00:11:00,
2013-02-20 19:16:00,22.0,17.1,30.32,NW,316,11.0,15.0,81,0.00,,---,0.00,VWS V14.01,2013-02-21 00:16:00,
2013-02-20 19:21:00,21.9,17.0,30.32,NW,313,11.0,18.0,81,0.00,,---,0.00,VWS V14.01,2013-02-21 00:21:00,
2013-02-20 19:26:00,21.8,17.2,30.32,NW,322,10.0,18.0,82,0.00,,---,0.00,VWS V14.01,2013-02-21 00:26:00,
2013-02-20 19:31:00,21.8,17.2,30.32,NW,310,12.0,16.0,82,0.00,,---,0.00,VWS V14.01,2013-02-21 00:31:00,
2013-02-20 19:36:00,21.8,17.2,30.33,NW,322,10.0,15.0,82,0.00,,---,0.00,VWS V14.01,2013-02-21 00:36:00,
2013-02-20 19:41:00,21.8,17.2,30.32,WNW,293,11.0,12.0,82,0.00,,---,0.00,VWS V14.01,2013-02-21 00:41:00,
2013-02-20 19:46:00,21.7,17.1,30.32,NW,323,13.0,15.0,82,0.00,,---,0.00,VWS V14.01,2013-02-21 00:46:00,
2013-02-20 19:51:00,21.7,17.1,30.32,NW,312,13.0,14.0,82,0.00,,---,0.00,VWS V14.01,2013-02-21 00:51:00,
2013-02-20 19:56:00,21.7,17.3,30.32,NNW,327,11.0,12.0,83,0.00,,---,0.00,VWS V14.01,2013-02-21 00:56:00,
2013-02-20 20:01:00,21.6,17.2,30.32,NW,317,9.0,11.0,83,0.00,,---,0.00,VWS V14.01,2013-02-21 01:01:00,
2013-02-20 20:06:00,21.6,17.2,30.32,NNW,341,11.0,13.0,83,0.00,,---,0.00,VWS V14.01,2013-02-21 01:06:00,
2013-02-20 20:11:00,21.6,17.2,30.32,NW,317,9.0,14.0,83,0.00,,---,0.00,VWS V14.01,2013-02-21 01:11:00,
2013-02-20 20:16:00,21.6,17.2,30.33,NW,304,6.0,12.0,83,0.00,,---,0.00,VWS V14.01,2013-02-21 01:16:00,
2013-02-20 20:21:00,21.6,17.2,30.33,WNW,299,11.0,12.0,83,0.00,,---,0.00,VWS V14.01,2013-02-21 01:21:00,
2013-02-20 20:26:00,21.6,17.0,30.33,WNW,301,11.0,15.0,82,0.00,,---,0.00,VWS V14.01,2013-02-21 01:26:00,
2013-02-20 20:31:00,21.6,17.0,30.33,NW,319,10.0,11.0,82,0.00,,---,0.00,VWS V14.01,2013-02-21 01:31:00,
2013-02-20 20:36:00,21.6,17.0,30.32,WNW,297,12.0,14.0,82,0.00,,---,0.00,VWS V14.01,2013-02-21 01:36:00,
2013-02-20 20:41:00,21.6,17.0,30.33,NW,313,12.0,13.0,82,0.00,,---,0.00,VWS V14.01,2013-02-21 01:41:00,
2013-02-20 20:46:00,21.7,17.1,30.32,NW,310,12.0,12.0,82,0.00,,---,0.00,VWS V14.01,2013-02-21 01:46:00,
2013-02-20 20:51:00,21.7,16.8,30.32,NNW,329,8.0,12.0,81,0.00,,---,0.00,VWS V14.01,2013-02-21 01:51:00,
2013-02-20 20:56:00,21.7,16.8,30.33,NW,308,8.0,11.0,81,0.00,,---,0.00,VWS V14.01,2013-02-21 01:56:00,
2013-02-20 21:01:00,21.7,16.8,30.33,NW,320,8.0,13.0,81,0.00,,---,0.00,VWS V14.01,2013-02-21 02:01:00,
2013-02-20 21:06:00,21.7,16.8,30.33,NW,324,10.0,15.0,81,0.00,,---,0.00,VWS V14.01,2013-02-21 02:06:00,
2013-02-20 21:11:00,21.8,16.9,30.32,NNW,333,10.0,16.0,81,0.00,,---,0.00,VWS V14.01,2013-02-21 02:11:00,
2013-02-20 21:16:00,21.8,16.9,30.33,WNW,300,8.0,13.0,81,0.00,,---,0.00,VWS V14.01,2013-02-21 02:16:00,
2013-02-20 21:21:00,21.9,16.7,30.33,NW,320,11.0,12.0,80,0.00,,---,0.00,VWS V14.01,2013-02-21 02:21:00,
2013-02-20 21:26:00,21.9,17.0,30.33,NW,315,17.0,17.0,81,0.00,,---,0.00,VWS V14.01,2013-02-21 02:26:00,
2013-02-20 21:31:00,22.0,16.8,30.33,NW,306,8.0,17.0,80,0.00,,---,0.00,VWS V14.01,2013-02-21 02:31:00,
2013-02-20 21:36:00,22.0,16.8,30.33,NNW,327,13.0,16.0,80,0.00,,---,0.00,VWS V14.01,2013-02-21 02:36:00,
2013-02-20 21:41:00,22.0,16.8,30.33,NNW,328,14.0,18.0,80,0.00,,---,0.00,VWS V14.01,2013-02-21 02:41:00,
2013-02-20 21:46:00,22.0,16.8,30.33,WNW,286,8.0,12.0,80,0.00,,---,0.00,VWS V14.01,2013-02-21 02:46:00,
2013-02-20 21:52:00,22.0,16.8,30.33,NW,317,10.0,15.0,80,0.00,,---,0.00,VWS V14.01,2013-02-21 02:52:00,
2013-02-20 21:57:00,22.0,16.8,30.33,NW,316,10.0,13.0,80,0.00,,---,0.00,VWS V14.01,2013-02-21 02:57:00,
2013-02-20 22:02:00,22.0,16.8,30.33,NW,309,10.0,12.0,80,0.00,,---,0.00,VWS V14.01,2013-02-21 03:02:00,
2013-02-20 22:07:00,22.0,16.8,30.33,NW,304,9.0,14.0,80,0.00,,---,0.00,VWS V14.01,2013-02-21 03:07:00,
2013-02-20 22:12:00,22.0,17.1,30.33,NW,312,11.0,15.0,81,0.00,,---,0.00,VWS V14.01,2013-02-21 03:12:00,
2013-02-20 22:17:00,22.0,17.1,30.33,NNW,333,10.0,11.0,81,0.00,,---,0.00,VWS V14.01,2013-02-21 03:17:00,
2013-02-20 22:22:00,22.0,17.1,30.33,NW,313,5.0,10.0,81,0.00,,---,0.00,VWS V14.01,2013-02-21 03:22:00,
2013-02-20 22:27:00,21.9,17.0,30.32,NW,320,7.0,16.0,81,0.00,,---,0.00,VWS V14.01,2013-02-21 03:27:00,
2013-02-20 22:32:00,22.0,17.1,30.33,WNW,299,10.0,12.0,81,0.00,,---,0.00,VWS V14.01,2013-02-21 03:32:00,
2013-02-20 22:37:00,21.9,17.0,30.32,NNW,334,7.0,12.0,81,0.00,,---,0.00,VWS V14.01,2013-02-21 03:37:00,
2013-02-20 22:42:00,21.9,17.0,30.32,NW,319,8.0,11.0,81,0.00,,---,0.00,VWS V14.01,2013-02-21 03:42:00,
2013-02-20 22:47:00,21.9,17.0,30.33,NNW,335,9.0,11.0,81,0.00,,---,0.00,VWS V14.01,2013-02-21 03:47:00,
2013-02-20 22:52:00,21.9,17.0,30.33,NNW,344,8.0,11.0,81,0.00,,---,0.00,VWS V14.01,2013-02-21 03:52:00,
2013-02-20 22:57:00,21.9,17.0,30.33,NNW,327,7.0,11.0,81,0.00,,---,0.00,VWS V14.01,2013-02-21 03:57:00,
2013-02-20 23:02:00,21.9,17.0,30.33,NW,318,8.0,11.0,81,0.00,,---,0.00,VWS V14.01,2013-02-21 04:02:00,
2013-02-20 23:07:00,21.8,16.9,30.32,NNW,329,6.0,13.0,81,0.00,,---,0.00,VWS V14.01,2013-02-21 04:07:00,
2013-02-20 23:12:00,21.8,16.9,30.33,NW,312,11.0,13.0,81,0.00,,---,0.00,VWS V14.01,2013-02-21 04:12:00,
2013-02-20 23:17:00,21.9,16.7,30.33,NNW,338,7.0,12.0,80,0.00,,---,0.00,VWS V14.01,2013-02-21 04:17:00,
2013-02-20 23:22:00,21.9,17.0,30.33,NW,318,7.0,9.0,81,0.00,,---,0.00,VWS V14.01,2013-02-21 04:22:00,
2013-02-20 23:27:00,21.8,16.6,30.33,NNW,329,8.0,10.0,80,0.00,,---,0.00,VWS V14.01,2013-02-21 04:27:00,
2013-02-20 23:32:00,21.9,16.4,30.33,NNW,334,8.0,14.0,79,0.00,,---,0.00,VWS V14.01,2013-02-21 04:32:00,
2013-02-20 23:37:00,21.9,16.4,30.33,WNW,298,10.0,12.0,79,0.00,,---,0.00,VWS V14.01,2013-02-21 04:37:00,
2013-02-20 23:42:00,21.9,16.4,30.34,NW,325,5.0,9.0,79,0.00,,---,0.00,VWS V14.01,2013-02-21 04:42:00,
2013-02-20 23:47:00,21.9,16.4,30.34,NNW,329,4.0,8.0,79,0.00,,---,0.00,VWS V14.01,2013-02-21 04:47:00,
2013-02-20 23:52:00,21.9,16.7,30.33,NW,321,7.0,12.0,80,0.00,,---,0.00,VWS V14.01,2013-02-21 04:52:00,
2013-02-20 23:57:00,21.8,16.6,30.33,North,349,8.0,11.0,80,0.00,,---,0.00,VWS V14.01,2013-02-21 04:57:00,